Nearby METAR Reports for Burr Ridge, IL

 

KMDW - Chicago, Illinois, USA
Distance from station: ENE 8mi, 13km
Updated: Thu, 23-Mar-2017 8:53am MST
Mostly cloudy
Mostly cloudy
 Wind from SE
Wind: SE 13 mph , 20 km/h
Temperature: 37°F , 3°C
Wind Chill: 29°F , -2°C
Dew Point: 19°F , -7°C
Humidity: 48%
Barometer: 30.39 inHg , 1029.1 hPa
Clouds: Mostly cloudy
Visibility: 10 miles , 16 km
Cloud details: Mostly cloudy 9000 ft
Mostly cloudy 11000 ft
Mostly cloudy 25000 ft
2017/03/23 15:53 KMDW 231553Z 14011KT 10SM BKN090 BKN110 BKN250 03/M07 A3039 RMK AO2 SLP302 T00331067
KLOT - Romeoville/Chi, Illinois, USA
Distance from station: SW 15mi, 24km
Updated: Thu, 23-Mar-2017 9:15am MST
Mostly cloudy
Mostly cloudy
 Wind from SSE
Wind: SSE 16 mph , 26 km/h
Temperature: 39°F , 4°C
Wind Chill: 30°F , -1°C
Dew Point: 27°F , -3°C
Humidity: 61%
Barometer: 30.36 inHg , 1028.1 hPa
Clouds: Mostly cloudy
Visibility: 10 miles , 16 km
Cloud details: Mostly cloudy 11000 ft
2017/03/23 16:15 KLOT 231615Z AUTO 15014KT 10SM BKN110 04/M03 A3036 RMK AO2 T00401027
 
KORD - Chicago O'hare, Illinois, USA
Distance from station: N 16mi, 25km
Updated: Thu, 23-Mar-2017 8:51am MST
Mostly cloudy
Mostly cloudy
 Wind from SSE
Wind: SSE 14 mph , 22 km/h
Temperature: 39°F , 4°C
Wind Chill: 31°F , -1°C
Dew Point: 19°F , -7°C
Humidity: 45%
Barometer: 30.37 inHg , 1028.4 hPa
Clouds: Mostly cloudy
Visibility: 10 miles , 16 km
Cloud details: Mostly cloudy 9000 ft
Mostly cloudy 25000 ft
2017/03/23 15:51 KORD 231551Z 16012KT 10SM BKN090 BKN250 04/M07 A3037 RMK AO2 SLP291 T00391067
KDPA - Chicago/Dupage, Illinois, USA
Distance from station: WNW 21mi, 34km
Updated: Thu, 23-Mar-2017 8:52am MST
Clear
Clear
 Wind from SSE
Wind: SSE 16 mph , 26 km/h
Temperature: 39°F , 4°C
Wind Chill: 30°F , -1°C
Dew Point: 21°F , -6°C
Humidity: 48%
Barometer: 30.36 inHg , 1028.1 hPa
Clouds: Clear
Visibility: 10 miles , 16 km
2017/03/23 15:52 KDPA 231552Z 16014KT 10SM CLR 04/M06 A3036 RMK AO2 SLP289 T00441056
 
KJOT - Joliet, Illinois, USA
Distance from station: SW 22mi, 36km
Updated: Thu, 23-Mar-2017 9:15am MST
Mostly cloudy
Mostly cloudy
 Wind from SSE
Wind: SSE 10 mph , 17 km/h, Gust: 17 mph , 28 km/h
Temperature: 41°F , 5°C
Wind Chill: 35°F , 2°C
Dew Point: 25°F , -4°C
Humidity: 53%
Barometer: 30.36 inHg , 1028.1 hPa
Clouds: Mostly cloudy
Visibility: 10 miles , 16 km
Cloud details: Mostly cloudy 11000 ft
2017/03/23 16:15 KJOT 231615Z AUTO 15009G15KT 10SM BKN110 05/M04 A3036 RMK AO2 T00491042
KIGQ - Chicago/Lansing, Illinois, USA
Distance from station: SE 24mi, 39km
Updated: Thu, 23-Mar-2017 9:15am MST
Overcast
Overcast
 Wind from SSE
Wind: SSE 14 mph , 22 km/h
Temperature: 39°F , 4°C
Wind Chill: 31°F , -1°C
Dew Point: 25°F , -4°C
Humidity: 56%
Barometer: 30.40 inHg , 1029.5 hPa
Clouds: Overcast
Visibility: 10 miles , 16 km
Cloud details: Partly cloudy 10000 ft
Overcast 11000 ft
2017/03/23 16:15 KIGQ 231615Z AUTO 15012KT 10SM SCT100 OVC110 04/M04 A3040 RMK AO2 T00351043
 
KPWK - Palwaukee, Illinois, USA
Distance from station: N 25mi, 40km
Updated: Thu, 23-Mar-2017 8:52am MST
Overcast
Overcast
 Wind from SSE
Wind: SSE 13 mph , 20 km/h
Temperature: 37°F , 3°C
Wind Chill: 29°F , -2°C
Dew Point: 19°F , -7°C
Humidity: 48%
Barometer: 30.38 inHg , 1028.8 hPa
Clouds: Overcast
Visibility: 10 miles , 16 km
Cloud details: Overcast 9000 ft
2017/03/23 15:52 KPWK 231552Z 16011KT 10SM OVC090 03/M07 A3038 RMK AO2 SLP295 T00331067
KGYY - Gary Regional, Indiana, USA
Distance from station: ESE 27mi, 43km
Updated: Thu, 23-Mar-2017 8:45am MST
Mostly cloudy
Mostly cloudy
 Wind from SSE
Wind: SSE 14 mph , 22 km/h
Temperature: 37°F , 3°C
Wind Chill: 28°F , -2°C
Dew Point: 16°F , -9°C
Humidity: 41%
Barometer: 30.40 inHg , 1029.5 hPa
Clouds: Mostly cloudy
Visibility: 10 miles , 16 km
Cloud details: Mostly cloudy 10000 ft
2017/03/23 15:45 KGYY 231545Z 15012KT 10SM BKN100 03/M09 A3040
 
KARR - Chicago/Aurora, Illinois, USA
Distance from station: W 30mi, 48km
Updated: Thu, 23-Mar-2017 8:52am MST
Clear
Clear
 Wind from SE
Wind: SE 14 mph , 22 km/h
Temperature: 41°F , 5°C
Wind Chill: 33°F , 1°C
Dew Point: 23°F , -5°C
Humidity: 49%
Barometer: 30.36 inHg , 1028.1 hPa
Clouds: Clear
Visibility: 10 miles , 16 km
2017/03/23 15:52 KARR 231552Z 14012KT 10SM CLR 05/M05 A3036 RMK AO2 SLP287 T00501050
KC09 - Morris-Washburn, Illinois, USA
Distance from station: SW 35mi, 56km
Updated: Thu, 23-Mar-2017 9:15am MST
Clear
Clear
 Wind from SSE
Wind: SSE 14 mph , 22 km/h, Gust: 20 mph , 31 km/h
Temperature: 41°F , 5°C
Wind Chill: 33°F , 1°C
Dew Point: 23°F , -5°C
Humidity: 49%
Barometer: 30.34 inHg , 1027.4 hPa
Clouds: Clear
Visibility: 10 miles , 16 km
2017/03/23 16:15 KC09 231615Z AUTO 15012G17KT 10SM CLR 05/M05 A3034 RMK AO2 T00511047
 
KDKB - De Kalb, Illinois, USA
Distance from station: WNW 43mi, 69km
Updated: Thu, 23-Mar-2017 9:15am MST
Clear
Clear
 Wind from SSE
Wind: SSE 16 mph , 26 km/h
Temperature: 41°F , 5°C
Wind Chill: 33°F , 1°C
Dew Point: 25°F , -4°C
Humidity: 53%
Barometer: 30.33 inHg , 1027.1 hPa
Clouds: Clear
Visibility: 10 miles , 16 km
2017/03/23 16:15 KDKB 231615Z AUTO 15014KT 10SM CLR 05/M04 A3033 RMK AO2 T00521042
KUGN - Waukegan, Illinois, USA
Distance from station: N 46mi, 73km
Updated: Thu, 23-Mar-2017 8:55am MST
Overcast
Overcast
 Wind from SSE
Wind: SSE 14 mph , 22 km/h, Gust: 23 mph , 37 km/h
Temperature: 36°F , 2°C
Wind Chill: 27°F , -3°C
Dew Point: 23°F , -5°C
Humidity: 60%
Barometer: 30.37 inHg , 1028.4 hPa
Clouds: Overcast
Visibility: 10 miles , 16 km
Cloud details: Overcast 9000 ft
2017/03/23 15:55 KUGN 231555Z 16012G20KT 10SM OVC090 02/M05 A3037 RMK AO2 SLP297 T00221050
 
KIKK - Kankakee, Illinois, USA
Distance from station: S 48mi, 77km
Updated: Thu, 23-Mar-2017 9:15am MST
Mostly cloudy
Mostly cloudy
 Wind from SE
Wind: SE 15 mph , 24 km/h, Gust: 18 mph , 30 km/h
Temperature: 43°F , 6°C
Wind Chill: 36°F , 2°C
Dew Point: 25°F , -4°C
Humidity: 49%
Barometer: 30.38 inHg , 1028.8 hPa
Clouds: Mostly cloudy
Visibility: 10 miles , 16 km
Cloud details: Mostly cloudy 11000 ft
2017/03/23 16:15 KIKK 231615Z AUTO 13013G16KT 10SM BKN110 06/M04 A3038 RMK AO2 T00621039